Time;durP1;ratioP1;P1;durP2;ratioP2;P2;SDS_P1;SDS_P2;PMS_P1;PMS_P2;Temp;Humidity;BMP_temperature;BMP_pressure;BME280_temperature;BME280_humidity;BME280_pressure;Samples;Min_cycle;Max_cycle;Signal;HPM_P1;HPM_P2
2024/04/09 00:02:07;;;;;;;23.40;4.90;;;;;;;15.79;71.43;94805.25;5497782;26;20266;-86
2024/04/09 00:04:35;;;;;;;21.70;4.33;;;;;;;15.71;70.63;94799.69;5497288;26;20225;-86
2024/04/09 00:07:04;;;;;;;19.83;5.27;;;;;;;15.70;70.19;94796.25;5497526;26;20237;-87
2024/04/09 00:09:30;;;;;;;25.00;6.43;;;;;;;15.65;70.32;94809.53;5498488;26;20275;-87
2024/04/09 00:11:58;;;;;;;18.00;4.47;;;;;;;15.64;71.25;94802.63;5497655;26;20236;-86
2024/04/09 00:14:24;;;;;;;21.80;5.10;;;;;;;15.71;70.05;94810.28;5496861;26;20267;-87
2024/04/09 00:16:53;;;;;;;24.47;5.07;;;;;;;15.59;71.10;94804.50;5497538;26;20241;-87
2024/04/09 00:19:19;;;;;;;24.43;4.63;;;;;;;15.59;71.77;94802.63;5465855;26;20309;-87
2024/04/09 00:21:52;;;;;;;23.07;5.03;;;;;;;15.61;72.80;94811.09;5498305;26;20313;-87
2024/04/09 00:24:17;;;;;;;18.97;4.40;;;;;;;15.59;72.71;94794.66;5497117;26;20224;-87
2024/04/09 00:26:46;;;;;;;17.37;4.63;;;;;;;15.57;73.40;94796.78;5531794;26;20244;-86
2024/04/09 00:29:12;;;;;;;18.73;4.87;;;;;;;15.62;73.07;94804.75;5495967;26;20228;-86
2024/04/09 00:31:41;;;;;;;20.77;4.30;;;;;;;15.72;73.32;94794.13;5495966;26;20262;-86
2024/04/09 00:34:06;;;;;;;18.30;4.47;;;;;;;15.56;74.42;94789.91;5495625;26;20550;-86
2024/04/09 00:36:36;;;;;;;17.53;4.47;;;;;;;15.47;74.79;94786.22;5495642;26;20240;-87
2024/04/09 00:39:18;;;;;;;23.00;5.07;;;;;;;15.43;74.49;94793.06;5496292;26;20271;-87
2024/04/09 00:41:47;;;;;;;20.90;4.47;;;;;;;15.45;74.78;94790.19;5464195;26;20236;-87
2024/04/09 00:44:13;;;;;;;17.70;4.50;;;;;;;15.49;74.82;94781.44;5495570;26;20224;-87
2024/04/09 00:46:39;;;;;;;18.80;4.63;;;;;;;15.52;75.04;94786.19;5495809;26;20609;-87
2024/04/09 00:49:08;;;;;;;22.70;5.17;;;;;;;15.58;74.05;94789.63;5495763;26;20275;-86
2024/04/09 00:51:34;;;;;;;26.27;4.47;;;;;;;15.53;73.93;94785.13;5496552;26;20224;-86
2024/04/09 00:54:03;;;;;;;18.23;4.40;;;;;;;15.47;74.40;94785.41;5496655;26;20270;-86
2024/04/09 00:56:32;;;;;;;19.73;4.90;;;;;;;15.55;73.72;94788.31;5464187;26;20236;-87
2024/04/09 00:59:00;;;;;;;19.80;4.30;;;;;;;15.47;74.35;94794.19;5465588;26;20236;-87
2024/04/09 01:01:26;;;;;;;16.73;4.37;;;;;;;15.41;77.30;94797.84;5496561;26;20237;-86
2024/04/09 01:03:55;;;;;;;17.40;4.07;;;;;;;15.51;77.85;94786.47;5461427;26;20236;-86
2024/04/09 01:06:21;;;;;;;24.13;6.13;;;;;;;15.60;77.28;94784.84;5495772;26;20277;-86
2024/04/09 01:08:50;;;;;;;21.87;5.07;;;;;;;15.37;77.49;94780.88;5463051;26;20737;-86
2024/04/09 01:11:15;;;;;;;18.77;4.27;;;;;;;15.36;77.03;94789.91;5495776;26;20229;-86
2024/04/09 01:13:46;;;;;;;17.60;4.53;;;;;;;15.28;77.20;94789.66;5494466;26;20283;-86
2024/04/09 01:16:12;;;;;;;29.33;5.20;;;;;;;15.26;77.26;94795.22;5496533;26;20240;-86
2024/04/09 01:18:41;;;;;;;22.13;5.47;;;;;;;15.37;76.89;94780.88;5495544;26;20232;-87
2024/04/09 01:21:08;;;;;;;14.80;4.53;;;;;;;15.37;76.32;94790.69;5495796;26;20634;-87
2024/04/09 01:23:39;;;;;;;26.57;5.50;;;;;;;15.34;75.22;94776.09;5495298;26;20228;-86
2024/04/09 01:26:04;;;;;;;19.43;5.00;;;;;;;15.28;75.30;94777.19;5495877;26;20713;-87
2024/04/09 01:28:33;;;;;;;24.03;5.03;;;;;;;15.35;75.67;94776.91;5495229;26;20224;-86
2024/04/09 01:31:01;;;;;;;23.37;4.53;;;;;;;15.26;76.83;94783.81;5463782;26;20267;-87
2024/04/09 01:33:29;;;;;;;22.17;5.00;;;;;;;15.22;77.50;94789.66;5495377;26;20332;-86
2024/04/09 01:35:55;;;;;;;20.10;4.70;;;;;;;15.35;78.07;94804.25;5463365;26;20262;-86
2024/04/09 01:38:24;;;;;;;17.43;4.47;;;;;;;15.21;78.41;94795.22;5496095;26;20244;-87
2024/04/09 01:40:52;;;;;;;13.97;5.33;;;;;;;15.28;76.91;94797.59;5495414;26;20304;-87
2024/04/09 01:43:21;;;;;;;20.43;4.90;;;;;;;15.23;77.11;94793.91;5496428;26;20294;-87
2024/04/09 01:45:47;;;;;;;19.30;5.13;;;;;;;15.21;79.15;94803.19;5495817;26;20221;-87
2024/04/09 01:48:16;;;;;;;22.50;4.70;;;;;;;15.08;80.45;94812.47;5496537;26;20812;-87
2024/04/09 01:50:42;;;;;;;22.10;5.80;;;;;;;15.28;80.21;94821.47;5464498;26;20233;-86
2024/04/09 01:53:10;;;;;;;29.27;5.13;;;;;;;15.27;79.66;94810.06;5497513;26;20283;-86
2024/04/09 01:55:36;;;;;;;25.07;5.67;;;;;;;15.24;79.53;94815.91;5496421;26;20274;-86
2024/04/09 01:58:08;;;;;;;33.00;4.77;;;;;;;15.32;76.76;94806.63;5496721;26;20240;-87
2024/04/09 02:00:34;;;;;;;22.77;4.83;;;;;;;15.27;75.97;94804.75;5496692;26;20236;-86
2024/04/09 02:03:04;;;;;;;20.87;4.83;;;;;;;15.23;76.06;94815.13;5497647;26;20271;-86
2024/04/09 02:05:35;;;;;;;24.17;4.87;;;;;;;15.18;77.12;94823.09;5496387;26;20229;-87
2024/04/09 02:08:04;;;;;;;20.83;5.30;;;;;;;15.20;76.79;94812.19;5464945;26;20248;-87
2024/04/09 02:10:31;;;;;;;17.70;4.57;;;;;;;15.27;76.92;94815.38;5497452;26;20228;-86
2024/04/09 02:12:59;;;;;;;21.03;4.63;;;;;;;15.28;76.95;94802.91;5496737;26;20224;-87
2024/04/09 02:15:28;;;;;;;18.53;4.17;;;;;;;15.21;77.59;94809.28;5497500;26;20271;-87
2024/04/09 02:17:56;;;;;;;18.70;4.57;;;;;;;15.24;77.32;94813.25;5466093;26;20244;-87
2024/04/09 02:20:23;;;;;;;24.10;5.13;;;;;;;15.14;76.85;94803.47;5465205;26;20259;-87
2024/04/09 02:22:52;;;;;;;27.07;5.40;;;;;;;15.09;74.40;94807.97;5496403;26;20237;-85
2024/04/09 02:25:18;;;;;;;24.93;5.10;;;;;;;14.99;74.78;94795.50;5465823;26;20336;-86
2024/04/09 02:27:48;;;;;;;24.90;4.37;;;;;;;14.95;76.96;94802.38;5494434;26;20240;-86
2024/04/09 02:30:14;;;;;;;21.90;4.47;;;;;;;14.75;78.23;94806.88;5462037;26;20258;-86
2024/04/09 02:32:45;;;;;;;21.77;4.40;;;;;;;14.67;78.75;94818.78;5495696;26;20358;-86
2024/04/09 02:35:11;;;;;;;18.30;4.83;;;;;;;14.75;78.31;94805.00;5493841;26;20743;-86
2024/04/09 02:37:40;;;;;;;20.90;4.57;;;;;;;14.67;78.66;94808.19;5494395;26;20244;-86
2024/04/09 02:40:14;;;;;;;21.00;4.77;;;;;;;14.61;79.68;94813.75;5494615;26;20229;-86
2024/04/09 02:42:44;;;;;;;21.97;4.40;;;;;;;14.49;78.99;94812.13;5494359;26;20317;-87
2024/04/09 02:45:10;;;;;;;16.20;3.97;;;;;;;14.44;79.69;94817.44;5461759;26;20251;-86
2024/04/09 02:47:39;;;;;;;28.27;5.57;;;;;;;14.56;79.25;94816.38;5494175;26;20241;-87
2024/04/09 02:50:08;;;;;;;26.80;5.60;;;;;;;14.46;79.44;94830.41;5494464;26;20229;-86
2024/04/09 02:52:37;;;;;;;18.67;4.90;;;;;;;14.47;79.16;94830.13;5495049;26;20279;-86
2024/04/09 02:55:04;;;;;;;25.57;4.77;;;;;;;14.42;79.73;94816.09;5461797;26;20255;-86
2024/04/09 02:57:33;;;;;;;19.20;4.27;;;;;;;14.55;79.65;94820.88;5494830;26;20287;-86
2024/04/09 02:59:59;;;;;;;23.70;4.60;;;;;;;14.68;78.57;94819.59;5494296;26;20244;-86
2024/04/09 03:02:27;;;;;;;19.13;4.23;;;;;;;14.62;78.68;94831.22;5494640;26;20266;-86
2024/04/09 03:04:53;;;;;;;18.57;4.70;;;;;;;14.70;78.48;94838.69;5494045;26;20262;-86
2024/04/09 03:07:24;;;;;;;17.80;4.97;;;;;;;14.64;78.61;94839.72;5494826;26;20725;-87
2024/04/09 03:09:50;;;;;;;24.70;3.80;;;;;;;14.65;77.37;94838.66;5461938;26;20578;-86
2024/04/09 03:12:19;;;;;;;21.73;4.37;;;;;;;14.77;77.57;94837.34;5494443;26;20232;-86
2024/04/09 03:14:44;;;;;;;13.83;4.07;;;;;;;14.77;78.20;94832.03;5493965;26;20227;-87
2024/04/09 03:17:13;;;;;;;16.50;4.43;;;;;;;14.82;76.95;94840.00;5494627;26;20278;-86
2024/04/09 03:19:39;;;;;;;17.67;4.70;;;;;;;14.78;76.92;94851.41;5494991;26;20224;-86
2024/04/09 03:22:08;;;;;;;17.00;4.77;;;;;;;14.63;76.86;94849.53;5494729;26;20300;-86
2024/04/09 03:24:36;;;;;;;18.57;4.00;;;;;;;14.59;77.65;94853.75;5463410;26;20261;-86
2024/04/09 03:27:05;;;;;;;20.30;4.37;;;;;;;14.57;78.35;94833.88;5465939;26;20320;-86
2024/04/09 03:29:31;;;;;;;19.27;4.63;;;;;;;14.54;78.90;94835.97;5498405;26;20275;-86
2024/04/09 03:32:00;;;;;;;16.30;3.73;;;;;;;14.55;78.67;94823.53;5465184;26;20233;-86
2024/04/09 03:34:26;;;;;;;19.27;4.37;;;;;;;14.66;77.77;94821.69;5497055;26;20295;-87
2024/04/09 03:36:54;;;;;;;17.77;4.70;;;;;;;14.60;78.16;94828.84;5498375;26;20720;-86
2024/04/09 03:39:23;;;;;;;24.50;4.77;;;;;;;14.52;78.61;94832.00;5498629;26;20259;-86
2024/04/09 03:41:51;;;;;;;24.33;4.87;;;;;;;14.58;78.39;94840.78;5499633;26;20232;-87
2024/04/09 03:44:20;;;;;;;16.57;3.93;;;;;;;14.62;78.50;94839.19;5495641;26;20264;-87
2024/04/09 03:46:46;;;;;;;28.67;4.43;;;;;;;14.59;78.42;94840.50;5499935;26;20236;-86
2024/04/09 03:49:14;;;;;;;21.27;4.70;;;;;;;14.61;78.60;94853.50;5466755;26;20280;-87
2024/04/09 03:51:40;;;;;;;19.43;4.10;;;;;;;14.70;76.82;94854.59;5498497;26;20240;-86
2024/04/09 03:54:10;;;;;;;20.97;5.40;;;;;;;14.70;74.15;94838.69;5466738;26;20730;-87
2024/04/09 03:56:36;;;;;;;30.97;5.73;;;;;;;14.95;72.64;94844.03;5466740;26;20334;-87
2024/04/09 03:59:09;;;;;;;20.83;5.57;;;;;;;14.96;72.64;94842.97;5501618;26;20236;-86
2024/04/09 04:01:34;;;;;;;19.20;4.50;;;;;;;14.84;74.36;94853.78;5506787;26;20225;-86
2024/04/09 04:04:03;;;;;;;23.90;4.80;;;;;;;14.81;75.79;94858.84;5499432;26;20611;-87
2024/04/09 04:06:29;;;;;;;24.00;5.23;;;;;;;14.88;72.44;94862.03;5498823;26;20275;-86
2024/04/09 04:08:58;;;;;;;23.03;4.93;;;;;;;15.04;69.14;94861.00;5465926;26;20276;-86
2024/04/09 04:11:24;;;;;;;20.13;4.90;;;;;;;15.19;67.02;94874.28;5498108;26;20275;-87
2024/04/09 04:13:52;;;;;;;16.23;4.03;;;;;;;15.11;73.89;94891.50;5497925;26;20229;-86
2024/04/09 04:16:21;;;;;;;13.97;3.80;;;;;;;14.80;76.08;94908.41;5498742;26;20259;-86
2024/04/09 04:18:50;;;;;;;15.27;4.30;;;;;;;14.57;76.80;94913.38;5498442;26;20232;-86
2024/04/09 04:21:17;;;;;;;18.07;4.10;;;;;;;14.71;74.82;94903.88;5498471;26;20225;-86
2024/04/09 04:23:45;;;;;;;17.10;4.37;;;;;;;14.83;72.54;94907.09;5497492;26;20313;-86
2024/04/09 04:26:12;;;;;;;16.30;4.73;;;;;;;14.93;71.94;94923.03;5497862;26;20229;-87
2024/04/09 04:28:42;;;;;;;16.00;3.60;;;;;;;15.17;70.67;94909.00;5497758;26;20566;-86
2024/04/09 04:31:08;;;;;;;14.57;3.20;;;;;;;15.32;69.64;94905.59;5465530;26;20232;-87
2024/04/09 04:33:40;;;;;;;16.93;3.10;;;;;;;15.44;68.63;94907.97;5497819;26;20313;-87
2024/04/09 04:36:06;;;;;;;14.03;2.73;;;;;;;15.47;68.01;94908.28;5497428;26;20228;-86
2024/04/09 04:38:35;;;;;;;15.23;3.13;;;;;;;15.72;66.75;94900.31;5498287;26;20228;-86
2024/04/09 04:41:01;;;;;;;17.00;2.87;;;;;;;15.87;65.79;94904.78;5498041;26;20225;-86
2024/04/09 04:43:29;;;;;;;14.63;3.30;;;;;;;15.85;66.66;94915.69;5499546;26;20275;-87
2024/04/09 04:45:55;;;;;;;14.17;3.30;;;;;;;15.99;66.04;94933.72;5498863;26;20224;-87
2024/04/09 04:48:23;;;;;;;13.27;2.73;;;;;;;16.02;65.88;94938.50;5498080;26;20304;-87
2024/04/09 04:50:52;;;;;;;13.20;2.87;;;;;;;15.97;66.74;94939.31;5465626;26;20232;-87
2024/04/09 04:53:20;;;;;;;11.87;2.50;;;;;;;15.95;66.04;94928.16;5466307;26;20357;-87
2024/04/09 04:55:47;;;;;;;11.23;3.07;;;;;;;15.87;67.18;94926.03;5497657;26;20224;-87
2024/04/09 04:58:15;;;;;;;12.20;2.30;;;;;;;15.99;67.00;94928.41;5499521;26;20547;-87
2024/04/09 05:00:41;;;;;;;10.57;2.47;;;;;;;16.04;66.86;94936.38;5466226;26;20326;-87
2024/04/09 05:03:09;;;;;;;10.30;2.57;;;;;;;16.03;65.92;94932.13;5467404;26;20678;-87
2024/04/09 05:05:35;;;;;;;9.20;2.13;;;;;;;15.92;67.40;94955.25;5496496;26;20570;-87
2024/04/09 05:08:06;;;;;;;10.70;1.90;;;;;;;15.96;67.75;94964.28;5499631;26;20263;-87
2024/04/09 05:10:32;;;;;;;11.40;2.55;;;;;;;15.87;68.97;94964.00;5499373;26;20363;-87
2024/04/09 05:13:01;;;;;;;8.57;2.20;;;;;;;15.80;69.16;94976.75;5508560;25;20301;-86
2024/04/09 05:15:27;;;;;;;10.87;1.83;;;;;;;15.87;69.11;94984.47;5498367;26;20708;-87
2024/04/09 05:17:56;;;;;;;9.23;1.90;;;;;;;15.81;69.85;94994.31;5498452;26;20283;-86
2024/04/09 05:20:26;;;;;;;13.67;1.90;;;;;;;15.85;69.20;94989.25;5493561;26;20236;-87
2024/04/09 05:22:56;;;;;;;7.47;2.23;;;;;;;15.71;70.07;94985.53;5497799;26;20349;-87
2024/04/09 05:25:26;;;;;;;8.43;1.90;;;;;;;15.78;70.39;94983.41;5464014;26;20260;-87
2024/04/09 05:27:55;;;;;;;7.33;2.27;;;;;;;15.78;70.70;95002.78;5488868;26;20308;-87
2024/04/09 05:30:21;;;;;;;9.77;1.60;;;;;;;15.70;71.19;95018.47;5495444;26;20252;-86
2024/04/09 05:32:49;;;;;;;7.40;1.70;;;;;;;15.67;71.12;95017.13;5495974;26;20245;-87
2024/04/09 05:35:19;;;;;;;7.30;1.80;;;;;;;15.63;71.02;95026.69;5495156;26;20237;-87
2024/04/09 05:37:45;;;;;;;11.53;2.57;;;;;;;15.71;71.30;95020.03;5495464;26;20240;-87
2024/04/09 05:40:14;;;;;;;7.70;2.17;;;;;;;15.79;71.18;95020.34;5496413;26;20361;-87
2024/04/09 05:42:44;;;;;;;6.03;1.57;;;;;;;15.60;71.74;95013.94;5496206;26;20283;-87
2024/04/09 05:45:12;;;;;;;6.67;2.13;;;;;;;15.71;71.53;95023.50;5458973;26;20307;-88
2024/04/09 05:47:38;;;;;;;8.47;1.37;;;;;;;15.71;72.03;95015.53;5494555;26;20244;-87
2024/04/09 05:50:08;;;;;;;9.00;1.73;;;;;;;15.80;71.10;95021.09;5497503;26;20278;-86
2024/04/09 05:52:35;;;;;;;5.87;2.43;;;;;;;15.67;72.18;95038.38;5462217;26;20297;-87
2024/04/09 05:55:05;;;;;;;5.57;1.50;;;;;;;15.66;72.20;95042.06;5496438;26;20291;-87
2024/04/09 05:57:36;;;;;;;8.63;1.80;;;;;;;15.70;72.31;95047.66;5496764;26;20291;-87
2024/04/09 06:00:09;;;;;;;7.87;1.67;;;;;;;15.66;73.12;95054.56;5497167;26;20248;-87
2024/04/09 06:02:35;;;;;;;5.70;1.50;;;;;;;15.62;73.68;95056.94;5497466;26;20295;-87
2024/04/09 06:05:03;;;;;;;6.03;2.37;;;;;;;15.52;73.84;95070.19;5496690;26;20236;-87
2024/04/09 06:07:30;;;;;;;7.33;1.57;;;;;;;15.61;73.56;95070.47;5467129;26;20315;-85
2024/04/09 06:09:59;;;;;;;5.07;1.17;;;;;;;15.81;72.78;95059.88;5488653;25;20272;-85
2024/04/09 06:12:25;;;;;;;5.67;1.97;;;;;;;15.74;73.74;95059.34;5472074;26;20353;-86
2024/04/09 06:14:56;;;;;;;7.80;2.50;;;;;;;15.95;73.17;95073.44;5493617;26;20300;-86
2024/04/09 06:17:24;;;;;;;5.27;1.73;;;;;;;15.97;72.63;95087.25;5494272;26;20732;-87
2024/04/09 06:19:53;;;;;;;6.47;1.93;;;;;;;16.14;72.71;95096.59;5495964;26;20240;-86
2024/04/09 06:22:19;;;;;;;6.30;1.67;;;;;;;16.23;72.49;95102.16;5494600;26;20270;-87
2024/04/09 06:24:49;;;;;;;5.77;1.70;;;;;;;16.22;71.91;95088.06;5494970;26;20228;-87
2024/04/09 06:27:15;;;;;;;6.27;1.80;;;;;;;16.24;72.88;95098.44;5495399;26;20236;-87
2024/04/09 06:29:44;;;;;;;9.57;1.63;;;;;;;16.34;73.32;95107.22;5462905;26;20267;-86
2024/04/09 06:32:10;;;;;;;6.30;1.30;;;;;;;16.28;73.51;95100.31;5494948;26;20228;-87
2024/04/09 06:34:42;;;;;;;7.47;1.30;;;;;;;16.17;74.25;95108.53;5463300;26;20262;-87
2024/04/09 06:37:08;;;;;;;9.83;2.30;;;;;;;16.08;74.41;95124.19;5495043;26;20244;-87
2024/04/09 06:39:36;;;;;;;5.20;1.60;;;;;;;16.16;74.67;95128.19;5496121;26;20267;-87
2024/04/09 06:42:03;;;;;;;9.50;2.27;;;;;;;16.18;75.16;95116.25;5495425;26;20229;-87
2024/04/09 06:44:32;;;;;;;5.67;1.70;;;;;;;15.90;76.58;95128.16;5496375;26;20598;-87
2024/04/09 06:46:58;;;;;;;6.70;1.90;;;;;;;15.89;76.95;95131.09;5497393;26;20741;-87
2024/04/09 06:49:26;;;;;;;9.50;1.50;;;;;;;15.85;77.26;95127.34;5463639;26;20263;-87
2024/04/09 06:51:55;;;;;;;4.90;1.70;;;;;;;15.85;77.32;95127.34;5495461;26;20229;-87
2024/04/09 06:54:23;;;;;;;5.90;1.70;;;;;;;15.80;77.89;95141.41;5463057;26;20271;-87
2024/04/09 06:56:49;;;;;;;6.07;1.70;;;;;;;15.47;79.46;95147.16;5495394;26;20241;-87
2024/04/09 06:59:18;;;;;;;4.17;1.53;;;;;;;15.50;80.31;95175.81;5497822;26;20272;-87
2024/04/09 07:01:44;;;;;;;4.90;1.57;;;;;;;15.10;82.01;95178.22;5501028;26;20611;-86
2024/04/09 07:04:13;;;;;;;2.77;1.00;;;;;;;15.05;82.96;95186.19;5504145;26;20267;-87
2024/04/09 07:06:39;;;;;;;8.50;1.57;;;;;;;14.89;84.03;95203.03;5498044;26;20579;-85
2024/04/09 07:09:16;;;;;;;3.97;1.20;;;;;;;14.53;84.76;95213.38;5496888;26;20277;-86
2024/04/09 07:11:43;;;;;;;5.40;1.20;;;;;;;14.16;86.80;95207.16;5464410;26;20310;-86
2024/04/09 07:14:12;;;;;;;2.60;1.07;;;;;;;14.34;87.17;95206.81;5494388;26;20567;-86
2024/04/09 07:16:38;;;;;;;2.47;1.23;;;;;;;14.13;87.32;95226.19;5495659;26;20325;-87
2024/04/09 07:19:07;;;;;;;2.00;1.13;;;;;;;13.92;88.90;95242.91;5462576;26;20241;-86
2024/04/09 07:21:32;;;;;;;6.03;0.80;;;;;;;13.46;89.95;95261.91;5496844;26;20714;-86
2024/04/09 07:24:01;;;;;;;3.33;0.43;;;;;;;13.15;90.83;95276.53;5496625;26;20225;-86
2024/04/09 07:26:29;;;;;;;0.70;0.40;;;;;;;12.94;91.06;95278.03;5496412;26;20240;-86
2024/04/09 07:28:58;;;;;;;4.90;0.50;;;;;;;12.95;91.06;95300.00;5464588;26;20697;-86
2024/04/09 07:31:24;;;;;;;2.00;0.40;;;;;;;12.82;90.33;95311.69;5498094;26;20228;-86
2024/04/09 07:33:52;;;;;;;5.00;0.60;;;;;;;12.61;90.13;95327.41;5465306;26;20284;-86
2024/04/09 07:36:18;;;;;;;0.50;0.20;;;;;;;12.36;90.05;95327.75;5498044;26;20271;-86
2024/04/09 07:38:47;;;;;;;0.43;0.27;;;;;;;12.32;91.12;95327.41;5496451;26;20252;-86
2024/04/09 07:41:13;;;;;;;0.97;0.37;;;;;;;12.23;91.86;95338.59;5463378;26;20295;-86
2024/04/09 07:43:44;;;;;;;2.50;0.93;;;;;;;12.04;92.27;95342.44;5496841;26;20292;-87
2024/04/09 07:46:10;;;;;;;1.20;0.40;;;;;;;12.00;91.80;95365.03;5498284;26;20271;-86
2024/04/09 07:48:38;;;;;;;0.30;0.30;;;;;;;11.78;92.33;95376.22;5464063;26;20264;-86
2024/04/09 07:51:04;;;;;;;1.10;0.40;;;;;;;11.77;93.17;95381.72;5496322;26;20712;-86
2024/04/09 07:53:33;;;;;;;0.30;0.30;;;;;;;11.45;87.36;95394.44;5496227;26;20285;-86
2024/04/09 07:56:02;;;;;;;0.30;0.30;;;;;;;11.43;86.31;95420.25;5496724;26;20229;-86
2024/04/09 07:58:31;;;;;;;0.60;0.60;;;;;;;11.43;84.91;95406.25;5494998;26;20308;-86
2024/04/09 08:01:01;;;;;;;0.10;0.10;;;;;;;11.21;83.11;95411.25;5496881;26;20233;-87
2024/04/09 08:03:30;;;;;;;0.43;0.30;;;;;;;11.09;82.95;95416.50;5498739;26;20237;-86
2024/04/09 08:05:56;;;;;;;0.80;0.20;;;;;;;11.01;83.54;95426.56;5497521;26;20274;-87
2024/04/09 08:08:24;;;;;;;1.83;0.20;;;;;;;11.04;82.87;95432.19;5466035;26;20284;-86
2024/04/09 08:10:50;;;;;;;1.47;0.20;;;;;;;11.40;82.12;95439.16;5464273;26;20248;-86
2024/04/09 08:13:18;;;;;;;0.20;0.20;;;;;;;11.29;82.23;95449.66;5496373;26;20237;-87
2024/04/09 08:15:44;;;;;;;0.20;0.20;;;;;;;11.36;81.54;95463.56;5464102;26;20350;-86
2024/04/09 08:18:15;;;;;;;0.10;0.10;;;;;;;11.18;80.23;95445.97;5464836;26;20253;-87
2024/04/09 08:20:41;;;;;;;1.37;0.20;;;;;;;11.24;79.96;95455.63;5497485;26;20263;-86
2024/04/09 08:23:10;;;;;;;0.80;0.50;;;;;;;11.45;79.83;95457.72;5496727;26;20271;-86
2024/04/09 08:25:36;;;;;;;0.60;0.60;;;;;;;11.63;79.41;95472.66;5464159;26;20263;-86
2024/04/09 08:28:05;;;;;;;0.53;0.47;;;;;;;11.52;78.31;95503.28;5465100;26;20283;-87
2024/04/09 08:30:33;;;;;;;4.67;3.47;;;;;;;11.47;78.02;95508.41;5497210;26;20225;-86
2024/04/09 08:33:01;;;;;;;2.23;0.30;;;;;;;11.26;76.96;95545.84;5465482;26;20232;-86
2024/04/09 08:35:30;;;;;;;2.83;0.23;;;;;;;10.85;77.40;95546.56;5495431;26;20582;-86
2024/04/09 08:37:58;;;;;;;1.33;0.30;;;;;;;10.94;77.29;95553.16;5464257;26;20283;-85
2024/04/09 08:40:24;;;;;;;1.47;0.20;;;;;;;10.89;76.13;95575.91;5496671;26;20224;-86
2024/04/09 08:42:53;;;;;;;2.50;0.10;;;;;;;10.91;76.83;95568.59;5464337;26;20781;-87
2024/04/09 08:45:19;;;;;;;1.70;0.30;;;;;;;10.81;76.15;95571.72;5495428;26;20604;-86
2024/04/09 08:47:49;;;;;;;0.27;0.20;;;;;;;10.70;76.31;95563.75;5495383;26;20283;-87
2024/04/09 08:50:14;;;;;;;2.97;0.30;;;;;;;10.60;75.99;95534.50;5465180;26;20272;-86
2024/04/09 08:52:46;;;;;;;0.40;0.40;;;;;;;10.68;76.16;95535.03;5464060;26;20236;-86
2024/04/09 08:55:11;;;;;;;1.27;0.50;;;;;;;10.85;76.12;95537.88;5496638;26;20299;-87
2024/04/09 08:57:40;;;;;;;1.33;0.60;;;;;;;10.84;75.97;95542.31;5461597;26;20313;-88
2024/04/09 09:00:07;;;;;;;1.83;0.43;;;;;;;10.65;75.38;95559.16;5493118;26;20263;-88
2024/04/09 09:02:35;;;;;;;1.20;0.80;;;;;;;10.62;76.01;95562.22;5462910;26;20324;-88
2024/04/09 09:05:01;;;;;;;1.00;0.33;;;;;;;10.48;76.38;95560.75;5494805;26;20229;-88
2024/04/09 09:07:30;;;;;;;1.03;0.40;;;;;;;10.36;76.43;95558.03;5495247;26;20662;-88
2024/04/09 09:10:03;;;;;;;0.43;0.20;;;;;;;10.26;76.25;95554.31;5495690;26;20263;-88
2024/04/09 09:12:31;;;;;;;0.37;0.37;;;;;;;10.20;77.18;95563.88;5495261;26;20229;-88
2024/04/09 09:15:00;;;;;;;1.40;0.20;;;;;;;10.05;77.18;95570.47;5495666;26;20229;-88
2024/04/09 09:17:29;;;;;;;0.40;0.20;;;;;;;10.05;77.74;95566.00;5495250;26;20687;-88
2024/04/09 09:19:58;;;;;;;1.17;0.40;;;;;;;9.89;78.09;95579.69;5463513;26;20713;-87
2024/04/09 09:22:29;;;;;;;0.50;0.17;;;;;;;9.85;77.92;95581.13;5494350;26;20672;-88
2024/04/09 09:25:01;;;;;;;0.20;0.20;;;;;;;9.82;78.51;95568.44;5463757;26;20264;-88
2024/04/09 09:27:29;;;;;;;0.80;0.20;;;;;;;9.93;78.42;95577.44;5497277;26;20238;-88
2024/04/09 09:29:55;;;;;;;0.10;0.10;;;;;;;9.76;79.01;95585.03;5497676;26;20278;-88
2024/04/09 09:32:24;;;;;;;0.30;0.10;;;;;;;9.94;79.46;95589.56;5492877;26;20232;-87
2024/04/09 09:34:51;;;;;;;0.20;0.20;;;;;;;9.68;79.19;95606.34;5493725;26;20283;-88
2024/04/09 09:37:20;;;;;;;3.17;1.90;;;;;;;9.82;79.18;95599.19;5494765;26;20372;-88
2024/04/09 09:39:46;;;;;;;0.87;0.60;;;;;;;9.69;79.46;95605.31;5494438;26;20240;-87
2024/04/09 09:42:17;;;;;;;1.37;1.10;;;;;;;9.67;80.30;95615.25;5494429;26;20291;-88
2024/04/09 09:44:45;;;;;;;0.20;0.20;;;;;;;9.57;80.28;95626.22;5461552;26;20275;-87
2024/04/09 09:47:13;;;;;;;0.50;0.20;;;;;;;9.45;80.30;95642.91;5494652;26;20330;-88
2024/04/09 09:49:39;;;;;;;2.13;0.30;;;;;;;9.46;80.68;95644.50;5494684;26;20763;-88
2024/04/09 09:52:08;;;;;;;2.73;0.60;;;;;;;9.71;81.28;95654.06;5497471;26;20248;-88
2024/04/09 09:54:34;;;;;;;0.87;0.20;;;;;;;9.96;80.38;95659.38;5466465;26;20611;-88
2024/04/09 09:57:06;;;;;;;0.40;0.30;;;;;;;9.82;79.44;95671.00;5462674;26;20302;-88
2024/04/09 09:59:36;;;;;;;0.70;0.57;;;;;;;9.63;80.08;95675.38;5495915;26;20282;-87
2024/04/09 10:02:05;;;;;;;1.80;0.70;;;;;;;9.74;80.17;95666.81;5469139;26;20248;-87
2024/04/09 10:04:31;;;;;;;0.40;0.30;;;;;;;9.72;78.95;95665.41;5469112;26;20747;-86
2024/04/09 10:07:00;;;;;;;0.70;0.37;;;;;;;9.74;78.84;95668.63;5508158;26;20240;-86
2024/04/09 10:09:42;;;;;;;0.30;0.30;;;;;;;9.94;79.04;95681.66;5474411;26;20609;-88
2024/04/09 10:12:21;;;;;;;1.40;0.70;;;;;;;9.98;78.11;95681.03;5492057;26;20326;-87
2024/04/09 10:14:55;;;;;;;2.40;1.70;;;;;;;9.97;76.55;95679.41;5493001;26;20291;-87
2024/04/09 10:17:23;;;;;;;3.13;0.40;;;;;;;9.83;76.57;95672.59;5491674;26;20774;-88
2024/04/09 10:19:49;;;;;;;0.30;0.30;;;;;;;9.76;76.07;95669.22;5459866;26;20292;-87
2024/04/09 10:22:18;;;;;;;0.40;0.40;;;;;;;9.83;75.88;95679.69;5459858;26;20335;-88
2024/04/09 10:24:44;;;;;;;0.20;0.20;;;;;;;9.97;76.10;95679.41;5493729;26;20541;-87
2024/04/09 10:27:13;;;;;;;1.70;0.47;;;;;;;9.96;75.74;95683.06;5494809;26;20307;-87
2024/04/09 10:29:50;;;;;;;0.20;0.20;;;;;;;10.10;76.44;95675.88;5494756;26;20225;-87
2024/04/09 10:32:24;;;;;;;0.63;0.40;;;;;;;9.91;74.93;95696.03;5462941;26;20236;-88
2024/04/09 10:34:51;;;;;;;0.40;0.20;;;;;;;9.73;74.35;95691.47;5497018;26;20270;-86
2024/04/09 10:37:20;;;;;;;0.30;0.10;;;;;;;9.80;75.13;95706.44;5497611;26;20405;-86
2024/04/09 10:39:46;;;;;;;0.50;0.30;;;;;;;9.75;75.02;95699.97;5497591;26;20544;-85
2024/04/09 10:42:14;;;;;;;0.30;0.30;;;;;;;9.72;75.69;95708.28;5498660;26;20267;-86
2024/04/09 10:44:40;;;;;;;0.17;0.17;;;;;;;9.61;76.49;95716.81;5465768;26;20248;-86
2024/04/09 10:47:09;;;;;;;0.10;0.10;;;;;;;9.71;75.90;95724.25;5498678;26;20236;-86
2024/04/09 10:49:38;;;;;;;0.20;0.20;;;;;;;9.36;76.78;95726.44;5465791;26;20571;-85
2024/04/09 10:52:07;;;;;;;1.07;0.10;;;;;;;9.48;77.00;95723.97;5499021;26;20225;-86
2024/04/09 10:54:33;;;;;;;0.77;0.23;;;;;;;9.38;77.53;95736.75;5497911;26;20241;-88
2024/04/09 10:57:02;;;;;;;1.57;0.20;;;;;;;9.35;77.42;95737.97;5498562;26;20729;-85
2024/04/09 10:59:28;;;;;;;0.70;0.60;;;;;;;9.38;76.70;95732.28;5466476;26;20760;-86
2024/04/09 11:01:56;;;;;;;0.47;0.20;;;;;;;9.51;77.74;95749.84;5498843;26;20225;-85
2024/04/09 11:04:22;;;;;;;0.90;0.27;;;;;;;9.52;77.41;95762.00;5498547;26;20228;-86
2024/04/09 11:06:54;;;;;;;3.10;0.37;;;;;;;9.54;77.57;95767.84;5498580;26;20240;-86
2024/04/09 11:09:19;;;;;;;0.20;0.10;;;;;;;9.32;77.25;95766.47;5498287;26;20268;-86
2024/04/09 11:11:49;;;;;;;8.03;0.40;;;;;;;9.36;77.14;95772.97;5500448;26;20728;-86
2024/04/09 11:14:15;;;;;;;2.47;0.30;;;;;;;9.31;77.05;95770.91;5464618;26;20236;-86
2024/04/09 11:16:48;;;;;;;3.23;2.00;;;;;;;9.45;76.98;95761.19;5465519;26;20333;-86
2024/04/09 11:19:19;;;;;;;4.67;2.23;;;;;;;9.35;76.62;95771.34;5497264;26;20275;-86
2024/04/09 11:21:47;;;;;;;1.33;0.77;;;;;;;9.48;75.59;95776.53;5494549;26;20620;-85
2024/04/09 11:24:19;;;;;;;1.87;0.70;;;;;;;9.33;75.26;95773.38;5462858;26;20232;-85
2024/04/09 11:26:45;;;;;;;2.07;0.80;;;;;;;9.50;75.48;95774.50;5464531;26;20271;-86
2024/04/09 11:29:23;;;;;;;5.30;0.43;;;;;;;9.50;74.74;95777.13;5495580;26;20282;-85
2024/04/09 11:31:49;;;;;;;1.97;1.10;;;;;;;9.57;74.05;95785.81;5495542;26;20225;-86
2024/04/09 11:34:28;;;;;;;4.60;3.60;;;;;;;9.63;74.70;95788.44;5496622;26;20360;-86
2024/04/09 11:36:54;;;;;;;2.33;1.17;;;;;;;9.46;74.83;95803.06;5465108;26;20252;-86